sensor_id;sensor_type;location;lat;lon;timestamp;pressure;altitude;pressure_sealevel;temperature;humidity
69955;BME280;57279;55.912;37.490;2023-11-19T00:00:46;100169.19;;;-6.66;73.41
69955;BME280;57279;55.912;37.490;2023-11-19T00:03:13;100160.78;;;-6.60;73.47
69955;BME280;57279;55.912;37.490;2023-11-19T00:05:39;100161.66;;;-6.50;73.12
69955;BME280;57279;55.912;37.490;2023-11-19T00:08:05;100159.91;;;-6.39;72.93
69955;BME280;57279;55.912;37.490;2023-11-19T00:10:32;100161.44;;;-6.37;72.49
69955;BME280;57279;55.912;37.490;2023-11-19T00:12:59;100160.78;;;-6.29;72.19
69955;BME280;57279;55.912;37.490;2023-11-19T00:15:25;100148.97;;;-6.44;71.62
69955;BME280;57279;55.912;37.490;2023-11-19T00:17:51;100159.22;;;-6.41;71.79
69955;BME280;57279;55.912;37.490;2023-11-19T00:20:20;100155.09;;;-6.34;72.16
69955;BME280;57279;55.912;37.490;2023-11-19T00:22:49;100156.94;;;-6.25;71.89
69955;BME280;57279;55.912;37.490;2023-11-19T00:25:19;100157.91;;;-6.26;71.69
69955;BME280;57279;55.912;37.490;2023-11-19T00:27:45;100158.16;;;-6.29;71.47
69955;BME280;57279;55.912;37.490;2023-11-19T00:30:11;100152.38;;;-6.23;71.70
69955;BME280;57279;55.912;37.490;2023-11-19T00:32:37;100154.50;;;-6.17;71.58
69955;BME280;57279;55.912;37.490;2023-11-19T00:35:08;100151.41;;;-6.22;71.51
69955;BME280;57279;55.912;37.490;2023-11-19T00:37:35;100145.47;;;-6.24;71.37
69955;BME280;57279;55.912;37.490;2023-11-19T00:40:02;100145.69;;;-6.37;70.19
69955;BME280;57279;55.912;37.490;2023-11-19T00:42:30;100146.47;;;-6.46;70.51
69955;BME280;57279;55.912;37.490;2023-11-19T00:44:56;100147.28;;;-6.45;70.60
69955;BME280;57279;55.912;37.490;2023-11-19T00:47:23;100145.47;;;-6.55;70.77
69955;BME280;57279;55.912;37.490;2023-11-19T00:49:49;100140.34;;;-6.77;70.80
69955;BME280;57279;55.912;37.490;2023-11-19T00:52:16;100138.63;;;-6.88;71.52
69955;BME280;57279;55.912;37.490;2023-11-19T00:54:43;100130.78;;;-7.20;71.98
69955;BME280;57279;55.912;37.490;2023-11-19T00:57:08;100134.50;;;-7.55;73.23
69955;BME280;57279;55.912;37.490;2023-11-19T00:59:34;100131.53;;;-7.62;74.27
69955;BME280;57279;55.912;37.490;2023-11-19T01:02:00;100134.06;;;-7.72;75.10
69955;BME280;57279;55.912;37.490;2023-11-19T01:04:34;100133.66;;;-7.56;75.09
69955;BME280;57279;55.912;37.490;2023-11-19T01:07:04;100123.63;;;-7.18;74.43
69955;BME280;57279;55.912;37.490;2023-11-19T01:09:33;100116.78;;;-6.89;73.41
69955;BME280;57279;55.912;37.490;2023-11-19T01:12:02;100103.88;;;-6.71;72.30
69955;BME280;57279;55.912;37.490;2023-11-19T01:14:28;100105.19;;;-6.55;72.06
69955;BME280;57279;55.912;37.490;2023-11-19T01:16:53;100102.78;;;-6.47;71.72
69955;BME280;57279;55.912;37.490;2023-11-19T01:19:21;100106.19;;;-6.56;71.33
69955;BME280;57279;55.912;37.490;2023-11-19T01:21:48;100091.94;;;-6.84;71.79
69955;BME280;57279;55.912;37.490;2023-11-19T01:24:14;100092.25;;;-7.20;73.03
69955;BME280;57279;55.912;37.490;2023-11-19T01:26:40;100088.56;;;-7.17;73.51
69955;BME280;57279;55.912;37.490;2023-11-19T01:29:14;100090.47;;;-7.19;74.06
69955;BME280;57279;55.912;37.490;2023-11-19T01:31:41;100103.31;;;-6.95;74.04
69955;BME280;57279;55.912;37.490;2023-11-19T01:34:07;100102.19;;;-6.81;73.11
69955;BME280;57279;55.912;37.490;2023-11-19T01:36:32;100108.00;;;-6.57;72.82
69955;BME280;57279;55.912;37.490;2023-11-19T01:38:58;100093.25;;;-6.38;72.25
69955;BME280;57279;55.912;37.490;2023-11-19T01:41:24;100099.53;;;-6.20;72.26
69955;BME280;57279;55.912;37.490;2023-11-19T01:43:50;100095.56;;;-6.04;71.70
69955;BME280;57279;55.912;37.490;2023-11-19T01:46:16;100094.63;;;-5.94;72.10
69955;BME280;57279;55.912;37.490;2023-11-19T01:48:44;100095.56;;;-5.85;71.93
69955;BME280;57279;55.912;37.490;2023-11-19T01:51:12;100092.81;;;-5.74;71.85
69955;BME280;57279;55.912;37.490;2023-11-19T01:53:39;100090.06;;;-5.82;71.62
69955;BME280;57279;55.912;37.490;2023-11-19T01:56:08;100089.91;;;-6.40;73.25
69955;BME280;57279;55.912;37.490;2023-11-19T01:58:38;100084.38;;;-6.47;74.53
69955;BME280;57279;55.912;37.490;2023-11-19T02:01:09;100087.91;;;-6.58;75.67
69955;BME280;57279;55.912;37.490;2023-11-19T02:03:35;100077.66;;;-6.30;75.84
69955;BME280;57279;55.912;37.490;2023-11-19T02:06:02;100074.97;;;-6.09;74.72
69955;BME280;57279;55.912;37.490;2023-11-19T02:08:31;100074.69;;;-5.96;74.33
69955;BME280;57279;55.912;37.490;2023-11-19T02:10:57;100072.25;;;-6.29;75.20
69955;BME280;57279;55.912;37.490;2023-11-19T02:13:24;100071.91;;;-6.14;75.56
69955;BME280;57279;55.912;37.490;2023-11-19T02:15:51;100072.31;;;-5.90;75.04
69955;BME280;57279;55.912;37.490;2023-11-19T02:20:43;100079.81;;;-5.75;74.41
69955;BME280;57279;55.912;37.490;2023-11-19T02:23:09;100073.03;;;-5.87;75.13
69955;BME280;57279;55.912;37.490;2023-11-19T02:25:35;100080.75;;;-6.05;76.07
69955;BME280;57279;55.912;37.490;2023-11-19T02:28:03;100083.00;;;-6.01;76.20
69955;BME280;57279;55.912;37.490;2023-11-19T02:30:30;100080.59;;;-5.94;76.44
69955;BME280;57279;55.912;37.490;2023-11-19T02:32:58;100090.19;;;-5.83;76.51
69955;BME280;57279;55.912;37.490;2023-11-19T02:35:26;100078.84;;;-6.03;76.86
69955;BME280;57279;55.912;37.490;2023-11-19T02:37:53;100079.09;;;-6.06;77.15
69955;BME280;57279;55.912;37.490;2023-11-19T02:40:19;100082.78;;;-6.19;78.18
69955;BME280;57279;55.912;37.490;2023-11-19T02:42:45;100083.13;;;-5.83;77.99
69955;BME280;57279;55.912;37.490;2023-11-19T02:45:11;100070.28;;;-5.57;77.16
69955;BME280;57279;55.912;37.490;2023-11-19T02:47:43;100067.22;;;-5.81;77.31
69955;BME280;57279;55.912;37.490;2023-11-19T02:50:10;100063.88;;;-5.74;77.62
69955;BME280;57279;55.912;37.490;2023-11-19T02:52:42;100067.22;;;-5.62;77.03
69955;BME280;57279;55.912;37.490;2023-11-19T02:55:10;100061.53;;;-5.38;76.82
69955;BME280;57279;55.912;37.490;2023-11-19T02:57:41;100066.50;;;-5.15;76.04
69955;BME280;57279;55.912;37.490;2023-11-19T03:00:19;100062.72;;;-5.03;75.26
69955;BME280;57279;55.912;37.490;2023-11-19T03:02:49;100057.91;;;-5.07;75.93
69955;BME280;57279;55.912;37.490;2023-11-19T03:05:25;100049.44;;;-5.01;75.46
69955;BME280;57279;55.912;37.490;2023-11-19T03:07:52;100054.31;;;-5.26;76.89
69955;BME280;57279;55.912;37.490;2023-11-19T03:10:18;100051.44;;;-5.33;76.70
69955;BME280;57279;55.912;37.490;2023-11-19T03:12:44;100052.81;;;-5.67;77.54
69955;BME280;57279;55.912;37.490;2023-11-19T03:15:11;100059.44;;;-5.73;79.11
69955;BME280;57279;55.912;37.490;2023-11-19T03:17:41;100059.19;;;-5.51;78.72
69955;BME280;57279;55.912;37.490;2023-11-19T03:20:10;100053.91;;;-5.41;77.96
69955;BME280;57279;55.912;37.490;2023-11-19T03:22:37;100045.31;;;-5.33;78.49
69955;BME280;57279;55.912;37.490;2023-11-19T03:25:04;100055.00;;;-5.14;77.58
69955;BME280;57279;55.912;37.490;2023-11-19T03:27:30;100050.97;;;-4.99;76.74
69955;BME280;57279;55.912;37.490;2023-11-19T03:29:56;100056.75;;;-4.95;76.55
69955;BME280;57279;55.912;37.490;2023-11-19T03:32:21;100049.97;;;-4.98;76.51
69955;BME280;57279;55.912;37.490;2023-11-19T03:34:47;100050.25;;;-4.91;76.49
69955;BME280;57279;55.912;37.490;2023-11-19T03:37:13;100047.09;;;-5.04;76.82
69955;BME280;57279;55.912;37.490;2023-11-19T03:39:43;100043.59;;;-4.95;76.93
69955;BME280;57279;55.912;37.490;2023-11-19T03:42:09;100038.91;;;-5.01;76.68
69955;BME280;57279;55.912;37.490;2023-11-19T03:44:35;100046.25;;;-5.05;77.14
69955;BME280;57279;55.912;37.490;2023-11-19T03:47:00;100042.72;;;-4.86;76.76
69955;BME280;57279;55.912;37.490;2023-11-19T03:49:26;100033.09;;;-4.67;75.90
69955;BME280;57279;55.912;37.490;2023-11-19T03:51:52;100032.94;;;-4.56;75.24
69955;BME280;57279;55.912;37.490;2023-11-19T03:54:17;100026.09;;;-4.49;74.89
69955;BME280;57279;55.912;37.490;2023-11-19T03:56:43;100023.06;;;-4.54;74.21
69955;BME280;57279;55.912;37.490;2023-11-19T03:59:09;100025.78;;;-4.46;74.62
69955;BME280;57279;55.912;37.490;2023-11-19T04:01:35;100030.09;;;-4.45;74.32
69955;BME280;57279;55.912;37.490;2023-11-19T04:04:03;100021.25;;;-4.54;75.57
69955;BME280;57279;55.912;37.490;2023-11-19T04:06:28;100024.38;;;-4.40;75.01
69955;BME280;57279;55.912;37.490;2023-11-19T04:08:54;100019.41;;;-4.43;74.89
69955;BME280;57279;55.912;37.490;2023-11-19T04:11:20;100012.72;;;-4.38;74.94
69955;BME280;57279;55.912;37.490;2023-11-19T04:13:46;100004.69;;;-4.46;74.87
69955;BME280;57279;55.912;37.490;2023-11-19T04:16:11;100001.84;;;-4.53;75.20
69955;BME280;57279;55.912;37.490;2023-11-19T04:18:37;99994.94;;;-4.91;76.36
69955;BME280;57279;55.912;37.490;2023-11-19T04:21:06;99991.69;;;-4.75;76.88
69955;BME280;57279;55.912;37.490;2023-11-19T04:23:32;99990.91;;;-4.58;76.39
69955;BME280;57279;55.912;37.490;2023-11-19T04:25:57;100001.94;;;-4.44;75.30
69955;BME280;57279;55.912;37.490;2023-11-19T04:28:23;99989.50;;;-4.34;75.13
69955;BME280;57279;55.912;37.490;2023-11-19T04:30:52;99991.25;;;-4.43;75.49
69955;BME280;57279;55.912;37.490;2023-11-19T04:33:18;99993.69;;;-4.32;75.35
69955;BME280;57279;55.912;37.490;2023-11-19T04:35:44;99989.38;;;-4.33;75.33
69955;BME280;57279;55.912;37.490;2023-11-19T04:38:10;99994.09;;;-4.36;75.25
69955;BME280;57279;55.912;37.490;2023-11-19T04:40:35;99997.59;;;-4.36;75.73
69955;BME280;57279;55.912;37.490;2023-11-19T04:43:03;99994.06;;;-4.26;75.12
69955;BME280;57279;55.912;37.490;2023-11-19T04:45:28;99997.88;;;-4.21;75.14
69955;BME280;57279;55.912;37.490;2023-11-19T04:47:54;100003.63;;;-4.25;75.19
69955;BME280;57279;55.912;37.490;2023-11-19T04:50:20;100003.75;;;-4.27;75.54
69955;BME280;57279;55.912;37.490;2023-11-19T04:52:45;100000.84;;;-4.24;75.07
69955;BME280;57279;55.912;37.490;2023-11-19T04:55:12;100011.63;;;-4.17;75.04
69955;BME280;57279;55.912;37.490;2023-11-19T04:57:40;100004.09;;;-4.12;74.38
69955;BME280;57279;55.912;37.490;2023-11-19T05:00:06;100018.78;;;-4.09;74.39
69955;BME280;57279;55.912;37.490;2023-11-19T05:02:34;100017.06;;;-4.01;74.97
69955;BME280;57279;55.912;37.490;2023-11-19T05:05:01;100019.16;;;-4.04;74.67
69955;BME280;57279;55.912;37.490;2023-11-19T05:07:27;100008.69;;;-3.96;74.78
69955;BME280;57279;55.912;37.490;2023-11-19T05:09:53;100007.81;;;-3.87;74.64
69955;BME280;57279;55.912;37.490;2023-11-19T05:12:18;99998.31;;;-3.80;74.73
69955;BME280;57279;55.912;37.490;2023-11-19T05:14:44;100004.66;;;-3.72;74.67
69955;BME280;57279;55.912;37.490;2023-11-19T05:17:15;100003.28;;;-3.77;74.54
69955;BME280;57279;55.912;37.490;2023-11-19T05:19:41;100008.94;;;-3.71;74.11
69955;BME280;57279;55.912;37.490;2023-11-19T05:22:06;100002.53;;;-3.69;74.56
69955;BME280;57279;55.912;37.490;2023-11-19T05:24:33;100018.91;;;-3.65;74.29
69955;BME280;57279;55.912;37.490;2023-11-19T05:26:58;100012.41;;;-3.71;74.15
69955;BME280;57279;55.912;37.490;2023-11-19T05:29:24;100011.66;;;-3.81;74.25
69955;BME280;57279;55.912;37.490;2023-11-19T05:31:50;100015.81;;;-3.79;74.62
69955;BME280;57279;55.912;37.490;2023-11-19T05:34:15;100014.81;;;-3.78;74.74
69955;BME280;57279;55.912;37.490;2023-11-19T05:36:41;100025.44;;;-3.69;74.29
69955;BME280;57279;55.912;37.490;2023-11-19T05:39:07;100009.09;;;-3.91;74.73
69955;BME280;57279;55.912;37.490;2023-11-19T05:41:33;100012.09;;;-3.86;75.08
69955;BME280;57279;55.912;37.490;2023-11-19T05:43:59;100020.47;;;-3.72;74.64
69955;BME280;57279;55.912;37.490;2023-11-19T05:46:24;100020.16;;;-3.69;74.36
69955;BME280;57279;55.912;37.490;2023-11-19T05:48:52;100017.84;;;-3.72;74.60
69955;BME280;57279;55.912;37.490;2023-11-19T05:51:18;100021.53;;;-3.65;74.87
69955;BME280;57279;55.912;37.490;2023-11-19T05:53:44;100019.16;;;-4.04;75.39
69955;BME280;57279;55.912;37.490;2023-11-19T05:56:11;100019.69;;;-4.19;76.49
69955;BME280;57279;55.912;37.490;2023-11-19T05:58:37;100008.16;;;-4.18;77.77
69955;BME280;57279;55.912;37.490;2023-11-19T06:01:05;100019.16;;;-4.04;77.33
69955;BME280;57279;55.912;37.490;2023-11-19T06:03:32;100018.88;;;-4.47;77.75
69955;BME280;57279;55.912;37.490;2023-11-19T06:05:58;100012.41;;;-4.35;78.92
69955;BME280;57279;55.912;37.490;2023-11-19T06:08:24;100008.75;;;-4.52;78.73
69955;BME280;57279;55.912;37.490;2023-11-19T06:10:52;100009.00;;;-4.45;78.43
69955;BME280;57279;55.912;37.490;2023-11-19T06:13:18;100007.09;;;-4.25;77.66
69955;BME280;57279;55.912;37.490;2023-11-19T06:15:44;100011.69;;;-4.27;77.11
69955;BME280;57279;55.912;37.490;2023-11-19T06:18:10;99998.28;;;-4.16;77.50
69955;BME280;57279;55.912;37.490;2023-11-19T06:20:38;100010.50;;;-3.97;76.56
69955;BME280;57279;55.912;37.490;2023-11-19T06:23:03;99996.13;;;-3.84;76.56
69955;BME280;57279;55.912;37.490;2023-11-19T06:25:29;100001.00;;;-3.71;76.08
69955;BME280;57279;55.912;37.490;2023-11-19T06:27:55;100001.09;;;-3.63;75.09
69955;BME280;57279;55.912;37.490;2023-11-19T06:30:22;99998.75;;;-3.66;74.65
69955;BME280;57279;55.912;37.490;2023-11-19T06:32:48;100005.75;;;-3.75;75.35
69955;BME280;57279;55.912;37.490;2023-11-19T06:35:13;99993.00;;;-3.62;75.72
69955;BME280;57279;55.912;37.490;2023-11-19T06:37:40;99997.75;;;-3.47;75.33
69955;BME280;57279;55.912;37.490;2023-11-19T06:40:07;99991.31;;;-3.45;74.57
69955;BME280;57279;55.912;37.490;2023-11-19T06:42:34;99995.16;;;-3.39;74.22
69955;BME280;57279;55.912;37.490;2023-11-19T06:45:01;99993.19;;;-3.37;73.79
69955;BME280;57279;55.912;37.490;2023-11-19T06:47:30;99992.28;;;-3.28;72.69
69955;BME280;57279;55.912;37.490;2023-11-19T06:49:55;99987.75;;;-3.18;71.68
69955;BME280;57279;55.912;37.490;2023-11-19T06:52:21;99991.19;;;-3.17;70.58
69955;BME280;57279;55.912;37.490;2023-11-19T06:54:47;99984.47;;;-3.11;69.89
69955;BME280;57279;55.912;37.490;2023-11-19T06:57:13;99984.16;;;-3.08;70.12
69955;BME280;57279;55.912;37.490;2023-11-19T06:59:40;99994.03;;;-3.10;70.15
69955;BME280;57279;55.912;37.490;2023-11-19T07:02:06;99984.25;;;-3.18;70.53
69955;BME280;57279;55.912;37.490;2023-11-19T07:04:32;99983.66;;;-3.12;70.54
69955;BME280;57279;55.912;37.490;2023-11-19T07:06:59;99984.66;;;-3.05;69.96
69955;BME280;57279;55.912;37.490;2023-11-19T07:09:26;99982.09;;;-2.97;70.35
69955;BME280;57279;55.912;37.490;2023-11-19T07:11:52;99983.28;;;-2.91;70.27
69955;BME280;57279;55.912;37.490;2023-11-19T07:14:18;99989.09;;;-2.79;70.34
69955;BME280;57279;55.912;37.490;2023-11-19T07:16:44;99994.41;;;-2.79;69.72
69955;BME280;57279;55.912;37.490;2023-11-19T07:19:11;99996.38;;;-2.81;69.93
69955;BME280;57279;55.912;37.490;2023-11-19T07:21:41;99992.06;;;-2.82;69.82
69955;BME280;57279;55.912;37.490;2023-11-19T07:24:10;99992.91;;;-2.82;70.15
69955;BME280;57279;55.912;37.490;2023-11-19T07:26:39;99999.16;;;-2.83;69.76
69955;BME280;57279;55.912;37.490;2023-11-19T07:29:06;99997.72;;;-2.77;69.71
69955;BME280;57279;55.912;37.490;2023-11-19T07:31:33;99991.63;;;-2.69;70.01
69955;BME280;57279;55.912;37.490;2023-11-19T07:33:58;99995.44;;;-2.64;70.00
69955;BME280;57279;55.912;37.490;2023-11-19T07:36:24;99996.94;;;-2.61;70.23
69955;BME280;57279;55.912;37.490;2023-11-19T07:38:50;99992.81;;;-2.64;69.42
69955;BME280;57279;55.912;37.490;2023-11-19T07:41:16;99992.16;;;-2.58;70.03
69955;BME280;57279;55.912;37.490;2023-11-19T07:43:45;99992.88;;;-2.47;69.32
69955;BME280;57279;55.912;37.490;2023-11-19T07:46:13;100000.19;;;-2.41;68.83
69955;BME280;57279;55.912;37.490;2023-11-19T07:48:40;99991.91;;;-2.38;67.21
69955;BME280;57279;55.912;37.490;2023-11-19T07:51:06;99993.56;;;-2.45;66.44
69955;BME280;57279;55.912;37.490;2023-11-19T07:53:32;99983.91;;;-2.63;66.43
69955;BME280;57279;55.912;37.490;2023-11-19T07:56:03;99981.25;;;-2.63;66.45
69955;BME280;57279;55.912;37.490;2023-11-19T07:58:29;99990.41;;;-2.49;66.99
69955;BME280;57279;55.912;37.490;2023-11-19T08:00:55;99992.69;;;-2.46;65.33
69955;BME280;57279;55.912;37.490;2023-11-19T08:03:20;99985.78;;;-2.39;65.49
69955;BME280;57279;55.912;37.490;2023-11-19T08:05:49;99984.00;;;-2.30;64.25
69955;BME280;57279;55.912;37.490;2023-11-19T08:08:15;99977.41;;;-2.26;64.34
69955;BME280;57279;55.912;37.490;2023-11-19T08:10:41;99978.38;;;-2.27;66.25
69955;BME280;57279;55.912;37.490;2023-11-19T08:13:07;99974.75;;;-2.26;69.19
69955;BME280;57279;55.912;37.490;2023-11-19T08:15:33;99982.31;;;-2.39;67.80
69955;BME280;57279;55.912;37.490;2023-11-19T08:17:58;99974.19;;;-2.46;65.86
69955;BME280;57279;55.912;37.490;2023-11-19T08:20:24;99966.25;;;-2.46;65.28
69955;BME280;57279;55.912;37.490;2023-11-19T08:22:50;99969.19;;;-2.57;64.52
69955;BME280;57279;55.912;37.490;2023-11-19T08:25:16;99965.44;;;-2.46;65.44
69955;BME280;57279;55.912;37.490;2023-11-19T08:27:41;99960.50;;;-2.41;65.06
69955;BME280;57279;55.912;37.490;2023-11-19T08:30:08;99963.53;;;-2.28;64.91
69955;BME280;57279;55.912;37.490;2023-11-19T08:32:34;99960.66;;;-2.34;63.74
69955;BME280;57279;55.912;37.490;2023-11-19T08:35:01;99958.22;;;-2.36;62.95
69955;BME280;57279;55.912;37.490;2023-11-19T08:37:26;99947.78;;;-2.38;63.67
69955;BME280;57279;55.912;37.490;2023-11-19T08:39:52;99959.69;;;-2.33;64.50
69955;BME280;57279;55.912;37.490;2023-11-19T08:42:19;99962.03;;;-2.22;64.30
69955;BME280;57279;55.912;37.490;2023-11-19T08:44:49;99958.94;;;-2.09;64.04
69955;BME280;57279;55.912;37.490;2023-11-19T08:47:16;99963.06;;;-1.99;64.18
69955;BME280;57279;55.912;37.490;2023-11-19T08:49:45;99960.91;;;-2.03;63.61
69955;BME280;57279;55.912;37.490;2023-11-19T08:52:11;99959.91;;;-2.02;63.21
69955;BME280;57279;55.912;37.490;2023-11-19T08:54:37;99955.78;;;-1.97;63.64
69955;BME280;57279;55.912;37.490;2023-11-19T08:57:04;99967.22;;;-1.96;63.16
69955;BME280;57279;55.912;37.490;2023-11-19T08:59:30;99958.13;;;-2.02;62.52
69955;BME280;57279;55.912;37.490;2023-11-19T09:01:56;99962.22;;;-2.16;61.22
69955;BME280;57279;55.912;37.490;2023-11-19T09:04:22;99962.34;;;-2.25;62.26
69955;BME280;57279;55.912;37.490;2023-11-19T09:06:49;99959.41;;;-2.22;63.05
69955;BME280;57279;55.912;37.490;2023-11-19T09:09:15;99963.06;;;-2.15;63.47
69955;BME280;57279;55.912;37.490;2023-11-19T09:11:41;99954.88;;;-2.38;61.13
69955;BME280;57279;55.912;37.490;2023-11-19T09:14:08;99953.03;;;-2.54;61.92
69955;BME280;57279;55.912;37.490;2023-11-19T09:16:34;99954.50;;;-2.60;62.54
69955;BME280;57279;55.912;37.490;2023-11-19T09:19:00;99948.25;;;-2.50;61.77
69955;BME280;57279;55.912;37.490;2023-11-19T09:21:27;99948.13;;;-2.83;61.80
69955;BME280;57279;55.912;37.490;2023-11-19T09:23:55;99941.19;;;-3.10;65.40
69955;BME280;57279;55.912;37.490;2023-11-19T09:26:21;99950.00;;;-3.02;66.55
69955;BME280;57279;55.912;37.490;2023-11-19T09:28:46;99937.69;;;-2.93;66.03
69955;BME280;57279;55.912;37.490;2023-11-19T09:31:13;99936.56;;;-2.82;65.86
69955;BME280;57279;55.912;37.490;2023-11-19T09:33:39;99940.44;;;-2.60;65.00
69955;BME280;57279;55.912;37.490;2023-11-19T09:36:05;99931.19;;;-2.64;64.90
69955;BME280;57279;55.912;37.490;2023-11-19T09:38:31;99925.59;;;-2.53;64.79
69955;BME280;57279;55.912;37.490;2023-11-19T09:40:59;99921.66;;;-2.32;63.58
69955;BME280;57279;55.912;37.490;2023-11-19T09:43:27;99914.91;;;-2.27;61.03
69955;BME280;57279;55.912;37.490;2023-11-19T09:45:54;99909.44;;;-2.17;62.02
69955;BME280;57279;55.912;37.490;2023-11-19T09:48:23;99906.66;;;-2.16;62.80
69955;BME280;57279;55.912;37.490;2023-11-19T09:50:50;99897.06;;;-2.17;61.40
69955;BME280;57279;55.912;37.490;2023-11-19T09:53:17;99905.63;;;-2.39;59.96
69955;BME280;57279;55.912;37.490;2023-11-19T09:55:43;99903.00;;;-2.39;62.27
69955;BME280;57279;55.912;37.490;2023-11-19T09:58:12;99899.22;;;-2.28;62.59
69955;BME280;57279;55.912;37.490;2023-11-19T10:00:37;99881.00;;;-2.31;61.99
69955;BME280;57279;55.912;37.490;2023-11-19T10:03:04;99887.22;;;-2.65;60.00
69955;BME280;57279;55.912;37.490;2023-11-19T10:05:30;99879.69;;;-2.95;60.14
69955;BME280;57279;55.912;37.490;2023-11-19T10:07:56;99879.94;;;-2.71;60.40
69955;BME280;57279;55.912;37.490;2023-11-19T10:10:22;99885.63;;;-2.42;59.69
69955;BME280;57279;55.912;37.490;2023-11-19T10:12:50;99890.03;;;-2.67;59.22
69955;BME280;57279;55.912;37.490;2023-11-19T10:15:21;99883.69;;;-2.82;59.88
69955;BME280;57279;55.912;37.490;2023-11-19T10:17:48;99882.22;;;-2.77;60.15
69955;BME280;57279;55.912;37.490;2023-11-19T10:20:14;99883.84;;;-2.84;60.27
69955;BME280;57279;55.912;37.490;2023-11-19T10:22:40;99882.13;;;-2.59;60.22
69955;BME280;57279;55.912;37.490;2023-11-19T10:25:27;99874.34;;;-2.52;59.81
69955;BME280;57279;55.912;37.490;2023-11-19T10:27:54;99869.16;;;-2.86;58.66
69955;BME280;57279;55.912;37.490;2023-11-19T10:30:22;99868.69;;;-2.82;59.45
69955;BME280;57279;55.912;37.490;2023-11-19T10:33:13;99860.91;;;-2.83;58.81
69955;BME280;57279;55.912;37.490;2023-11-19T10:38:19;99865.25;;;-2.74;58.84
69955;BME280;57279;55.912;37.490;2023-11-19T10:40:45;99857.97;;;-2.64;58.85
69955;BME280;57279;55.912;37.490;2023-11-19T10:43:12;99864.59;;;-2.60;58.80
69955;BME280;57279;55.912;37.490;2023-11-19T10:45:38;99867.59;;;-2.54;58.13
69955;BME280;57279;55.912;37.490;2023-11-19T10:48:04;99861.34;;;-2.45;57.49
69955;BME280;57279;55.912;37.490;2023-11-19T10:50:34;99868.25;;;-2.44;58.18
69955;BME280;57279;55.912;37.490;2023-11-19T10:53:00;99867.94;;;-2.33;60.07
69955;BME280;57279;55.912;37.490;2023-11-19T10:55:28;99872.25;;;-2.32;61.50
69955;BME280;57279;55.912;37.490;2023-11-19T10:57:58;99871.09;;;-2.21;62.21
69955;BME280;57279;55.912;37.490;2023-11-19T11:00:25;99868.13;;;-2.10;63.71
69955;BME280;57279;55.912;37.490;2023-11-19T11:02:56;99870.28;;;-2.05;64.09
69955;BME280;57279;55.912;37.490;2023-11-19T11:05:26;99870.28;;;-2.05;64.64
69955;BME280;57279;55.912;37.490;2023-11-19T11:07:55;99871.94;;;-2.21;65.40
69955;BME280;57279;55.912;37.490;2023-11-19T11:10:25;99866.66;;;-2.21;66.00
69955;BME280;57279;55.912;37.490;2023-11-19T11:12:52;99870.59;;;-2.25;66.54
69955;BME280;57279;55.912;37.490;2023-11-19T11:15:27;99871.59;;;-2.26;67.09
69955;BME280;57279;55.912;37.490;2023-11-19T11:17:59;99870.28;;;-2.22;67.01
69955;BME280;57279;55.912;37.490;2023-11-19T11:20:32;99869.59;;;-2.16;66.95
69955;BME280;57279;55.912;37.490;2023-11-19T11:26:16;99865.97;;;-2.14;67.48
69955;BME280;57279;55.912;37.490;2023-11-19T11:31:48;99860.69;;;-2.14;67.42
69955;BME280;57279;55.912;37.490;2023-11-19T11:37:37;99850.09;;;-2.31;67.79
69955;BME280;57279;55.912;37.490;2023-11-19T11:40:05;99848.59;;;-2.25;67.81
69955;BME280;57279;55.912;37.490;2023-11-19T11:42:36;99843.31;;;-2.17;67.79
69955;BME280;57279;55.912;37.490;2023-11-19T11:50:12;99836.22;;;-2.41;69.13
69955;BME280;57279;55.912;37.490;2023-11-19T11:55:28;99833.25;;;-2.30;69.27
69955;BME280;57279;55.912;37.490;2023-11-19T11:57:59;99830.09;;;-2.25;68.43
69955;BME280;57279;55.912;37.490;2023-11-19T12:00:32;99832.56;;;-2.24;67.89
69955;BME280;57279;55.912;37.490;2023-11-19T12:03:01;99835.38;;;-2.25;67.02
69955;BME280;57279;55.912;37.490;2023-11-19T12:05:28;99830.94;;;-2.17;67.13
69955;BME280;57279;55.912;37.490;2023-11-19T12:07:55;99825.81;;;-2.18;67.20
69955;BME280;57279;55.912;37.490;2023-11-19T12:10:29;99833.06;;;-2.20;66.80
69955;BME280;57279;55.912;37.490;2023-11-19T12:12:59;99827.28;;;-2.24;66.88
69955;BME280;57279;55.912;37.490;2023-11-19T12:15:25;99827.94;;;-2.22;67.10
69955;BME280;57279;55.912;37.490;2023-11-19T12:17:54;99830.91;;;-2.25;66.86
69955;BME280;57279;55.912;37.490;2023-11-19T12:20:23;99832.25;;;-2.37;66.71
69955;BME280;57279;55.912;37.490;2023-11-19T12:22:50;99830.56;;;-2.54;66.43
69955;BME280;57279;55.912;37.490;2023-11-19T12:25:17;99837.34;;;-2.60;66.16
69955;BME280;57279;55.912;37.490;2023-11-19T12:27:48;99835.16;;;-2.73;66.34
69955;BME280;57279;55.912;37.490;2023-11-19T12:30:24;99834.50;;;-2.75;65.91
69955;BME280;57279;55.912;37.490;2023-11-19T12:32:51;99827.88;;;-2.79;66.43
69955;BME280;57279;55.912;37.490;2023-11-19T12:35:19;99827.69;;;-2.86;66.31
69955;BME280;57279;55.912;37.490;2023-11-19T12:37:50;99826.69;;;-2.93;66.58
69955;BME280;57279;55.912;37.490;2023-11-19T12:40:17;99823.06;;;-2.92;66.32
69955;BME280;57279;55.912;37.490;2023-11-19T12:42:48;99814.00;;;-2.81;66.19
69955;BME280;57279;55.912;37.490;2023-11-19T12:45:15;99819.75;;;-2.86;65.52
69955;BME280;57279;55.912;37.490;2023-11-19T12:47:43;99813.28;;;-3.00;66.05
69955;BME280;57279;55.912;37.490;2023-11-19T12:50:10;99811.44;;;-3.07;65.65
69955;BME280;57279;55.912;37.490;2023-11-19T12:52:36;99813.59;;;-3.03;65.41
69955;BME280;57279;55.912;37.490;2023-11-19T12:55:04;99807.78;;;-3.15;64.94
69955;BME280;57279;55.912;37.490;2023-11-19T12:57:39;99806.66;;;-3.12;65.22
69955;BME280;57279;55.912;37.490;2023-11-19T13:00:05;99807.63;;;-3.21;66.08
69955;BME280;57279;55.912;37.490;2023-11-19T13:02:45;99804.34;;;-3.15;66.12
69955;BME280;57279;55.912;37.490;2023-11-19T13:05:31;99801.56;;;-3.05;65.54
69955;BME280;57279;55.912;37.490;2023-11-19T13:08:09;99797.06;;;-3.13;65.17